createdAt,value
2023-05-03T00:00:45.429Z,506.00
2023-05-03T00:01:45.441Z,509.00
2023-05-03T00:02:45.562Z,506.00
2023-05-03T00:03:45.527Z,505.00
2023-05-03T00:04:45.620Z,505.00
2023-05-03T00:05:45.723Z,505.00
2023-05-03T00:06:45.643Z,506.00
2023-05-03T00:07:45.657Z,509.00
2023-05-03T00:08:45.659Z,507.00
2023-05-03T00:09:45.677Z,503.00
2023-05-03T00:10:45.704Z,503.00
2023-05-03T00:11:45.750Z,507.00
2023-05-03T00:12:45.766Z,505.00
2023-05-03T00:13:45.814Z,504.00
2023-05-03T00:14:45.821Z,509.00
2023-05-03T00:15:45.841Z,505.00
2023-05-03T00:16:45.891Z,505.00
2023-05-03T00:17:45.920Z,507.00
2023-05-03T00:18:47.742Z,506.00
2023-05-03T00:19:46.051Z,508.00
2023-05-03T00:20:46.102Z,504.00
2023-05-03T00:21:46.123Z,503.00
2023-05-03T00:22:46.163Z,504.00
2023-05-03T00:23:46.153Z,510.00
2023-05-03T00:24:46.215Z,504.00
2023-05-03T00:25:46.221Z,506.00
2023-05-03T00:26:46.295Z,505.00
2023-05-03T00:27:46.295Z,505.00
2023-05-03T00:28:46.328Z,506.00
2023-05-03T00:29:46.380Z,510.00
2023-05-03T00:30:46.432Z,506.00
2023-05-03T00:31:46.440Z,504.00
2023-05-03T00:32:46.503Z,510.00
2023-05-03T00:33:46.470Z,508.00
2023-05-03T00:34:46.544Z,505.00
2023-05-03T00:35:46.543Z,503.00
2023-05-03T00:36:46.566Z,507.00
2023-05-03T00:37:46.621Z,504.00
2023-05-03T00:38:46.629Z,504.00
2023-05-03T00:39:46.671Z,500.00
2023-05-03T00:40:46.660Z,506.00
2023-05-03T00:41:46.712Z,500.00
2023-05-03T00:42:46.780Z,507.00
2023-05-03T00:43:46.764Z,508.00
2023-05-03T00:44:46.808Z,504.00
2023-05-03T00:45:46.798Z,506.00
2023-05-03T00:46:46.880Z,502.00
2023-05-03T00:47:46.916Z,502.00
2023-05-03T00:48:46.908Z,507.00
2023-05-03T00:49:46.965Z,509.00
2023-05-03T00:50:46.943Z,505.00
2023-05-03T00:51:46.999Z,505.00
2023-05-03T00:52:47.020Z,505.00
2023-05-03T00:53:47.064Z,508.00
2023-05-03T00:54:47.046Z,504.00
2023-05-03T00:55:47.096Z,501.00
2023-05-03T00:56:51.636Z,506.00
2023-05-03T00:57:48.127Z,506.00
2023-05-03T00:58:47.106Z,506.00
2023-05-03T00:59:47.098Z,507.00
2023-05-03T01:00:48.718Z,506.00
2023-05-03T01:01:47.094Z,507.00
2023-05-03T01:02:47.177Z,503.00
2023-05-03T01:03:47.162Z,505.00
2023-05-03T01:04:47.050Z,508.00
2023-05-03T01:05:47.074Z,509.00
2023-05-03T01:06:47.108Z,505.00
2023-05-03T01:07:47.053Z,505.00
2023-05-03T01:08:47.026Z,507.00
2023-05-03T01:09:47.008Z,502.00
2023-05-03T01:10:47.054Z,505.00
2023-05-03T01:11:46.986Z,504.00
2023-05-03T01:12:47.004Z,504.00
2023-05-03T01:13:47.050Z,504.00
2023-05-03T01:14:47.028Z,508.00
2023-05-03T01:15:47.136Z,506.00
2023-05-03T01:16:47.133Z,503.00
2023-05-03T01:17:47.217Z,507.00
2023-05-03T01:18:47.169Z,503.00
2023-05-03T01:19:47.286Z,507.00
2023-05-03T01:20:47.208Z,504.00
2023-05-03T01:21:47.210Z,501.00
2023-05-03T01:22:47.282Z,505.00
2023-05-03T01:23:47.301Z,505.00
2023-05-03T01:24:47.322Z,509.00
2023-05-03T01:25:47.336Z,505.00
2023-05-03T01:26:47.370Z,509.00
2023-05-03T01:27:47.388Z,504.00
2023-05-03T01:28:47.437Z,503.00
2023-05-03T01:29:47.468Z,505.00
2023-05-03T01:30:47.562Z,503.00
2023-05-03T01:31:47.538Z,505.00
2023-05-03T01:32:47.597Z,509.00
2023-05-03T01:33:47.563Z,508.00
2023-05-03T01:34:47.594Z,505.00
2023-05-03T01:35:47.630Z,504.00
2023-05-03T01:36:47.636Z,504.00
2023-05-03T01:37:47.706Z,506.00
2023-05-03T01:38:47.690Z,503.00
2023-05-03T01:39:47.733Z,507.00
2023-05-03T01:40:47.753Z,502.00
2023-05-03T01:41:47.745Z,504.00
2023-05-03T01:42:47.785Z,500.00
2023-05-03T01:43:47.844Z,502.00
2023-05-03T01:44:47.860Z,501.00
2023-05-03T01:45:47.933Z,501.00
2023-05-03T01:46:47.909Z,506.00
2023-05-03T01:47:47.951Z,503.00
2023-05-03T01:48:47.945Z,500.00
2023-05-03T01:49:47.974Z,504.00
2023-05-03T01:50:47.980Z,507.00
2023-05-03T01:51:48.028Z,505.00
2023-05-03T01:52:48.054Z,509.00
2023-05-03T01:53:48.071Z,505.00
2023-05-03T01:54:48.104Z,506.00
2023-05-03T01:55:48.144Z,508.00
2023-05-03T01:56:48.162Z,504.00
2023-05-03T01:57:48.207Z,504.00
2023-05-03T01:58:48.256Z,505.00
2023-05-03T01:59:48.299Z,505.00
2023-05-03T02:00:48.318Z,505.00
2023-05-03T02:01:48.351Z,507.00
2023-05-03T02:02:48.476Z,508.00
2023-05-03T02:03:48.396Z,507.00
2023-05-03T02:04:48.495Z,505.00
2023-05-03T02:05:48.481Z,510.00
2023-05-03T02:06:48.512Z,506.00
2023-05-03T02:07:48.502Z,506.00
2023-05-03T02:08:48.530Z,509.00
2023-05-03T02:09:48.554Z,503.00
2023-05-03T02:10:48.578Z,502.00
2023-05-03T02:11:48.632Z,506.00
2023-05-03T02:12:48.651Z,508.00
2023-05-03T02:13:48.679Z,505.00
2023-05-03T02:14:48.712Z,505.00
2023-05-03T02:15:48.742Z,504.00
2023-05-03T02:16:48.784Z,508.00
2023-05-03T02:17:48.869Z,505.00
2023-05-03T02:18:48.836Z,512.00
2023-05-03T02:19:48.866Z,505.00
2023-05-03T02:20:48.892Z,503.00
2023-05-03T02:21:48.898Z,503.00
2023-05-03T02:22:48.964Z,509.00
2023-05-03T02:23:48.961Z,507.00
2023-05-03T02:24:49.040Z,504.00
2023-05-03T02:25:49.019Z,505.00
2023-05-03T02:26:49.063Z,508.00
2023-05-03T02:27:49.079Z,505.00
2023-05-03T02:28:49.136Z,507.00
2023-05-03T02:29:49.176Z,506.00
2023-05-03T02:30:49.221Z,504.00
2023-05-03T02:31:49.239Z,509.00
2023-05-03T02:32:49.338Z,508.00
2023-05-03T02:33:49.288Z,505.00
2023-05-03T02:34:49.340Z,506.00
2023-05-03T02:35:49.351Z,503.00
2023-05-03T02:36:49.390Z,510.00
2023-05-03T02:37:49.437Z,506.00
2023-05-03T02:38:49.438Z,503.00
2023-05-03T02:39:49.512Z,506.00
2023-05-03T02:40:49.513Z,507.00
2023-05-03T02:41:49.543Z,509.00
2023-05-03T02:42:49.591Z,505.00
2023-05-03T02:43:49.600Z,507.00
2023-05-03T02:44:49.675Z,505.00
2023-05-03T02:45:49.735Z,502.00
2023-05-03T02:46:49.774Z,506.00
2023-05-03T02:47:49.788Z,509.00
2023-05-03T02:48:49.788Z,504.00
2023-05-03T02:49:49.837Z,509.00
2023-05-03T02:50:49.862Z,500.00
2023-05-03T02:51:49.901Z,505.00
2023-05-03T02:52:49.905Z,508.00
2023-05-03T02:53:49.952Z,503.00
2023-05-03T02:54:49.993Z,502.00
2023-05-03T02:55:50.033Z,504.00
2023-05-03T02:56:50.768Z,505.00
2023-05-03T02:57:50.109Z,506.00
2023-05-03T02:58:50.155Z,504.00
2023-05-03T02:59:50.218Z,504.00
2023-05-03T03:00:50.222Z,503.00
2023-05-03T03:01:50.301Z,508.00
2023-05-03T03:02:50.361Z,506.00
2023-05-03T03:03:50.399Z,501.00
2023-05-03T03:04:50.415Z,509.00
2023-05-03T03:05:50.393Z,504.00
2023-05-03T03:06:50.482Z,508.00
2023-05-03T03:07:50.542Z,503.00
2023-05-03T03:08:50.556Z,503.00
2023-05-03T03:09:50.580Z,502.00
2023-05-03T03:10:50.594Z,507.00
2023-05-03T03:11:50.636Z,505.00
2023-05-03T03:12:50.676Z,508.00
2023-05-03T03:13:50.678Z,508.00
2023-05-03T03:14:50.761Z,512.00
2023-05-03T03:15:50.818Z,500.00
2023-05-03T03:16:50.827Z,506.00
2023-05-03T03:17:50.915Z,506.00
2023-05-03T03:18:50.909Z,508.00
2023-05-03T03:19:50.942Z,507.00
2023-05-03T03:20:50.967Z,505.00
2023-05-03T03:21:51.028Z,503.00
2023-05-03T03:22:51.032Z,507.00
2023-05-03T03:23:51.073Z,507.00
2023-05-03T03:24:51.106Z,513.00
2023-05-03T03:25:51.160Z,504.00
2023-05-03T03:26:51.202Z,513.00
2023-05-03T03:27:51.241Z,508.00
2023-05-03T03:28:51.272Z,509.00
2023-05-03T03:29:51.304Z,508.00
2023-05-03T03:30:51.378Z,503.00
2023-05-03T03:31:51.436Z,509.00
2023-05-03T03:32:51.442Z,507.00
2023-05-03T03:33:51.488Z,503.00
2023-05-03T03:34:51.523Z,505.00
2023-05-03T03:35:51.567Z,503.00
2023-05-03T03:36:51.594Z,504.00
2023-05-03T03:37:51.648Z,505.00
2023-05-03T03:39:07.773Z,506.00
2023-05-03T03:40:10.997Z,500.00
2023-05-03T03:41:11.019Z,500.00
2023-05-03T03:42:11.001Z,500.00
2023-05-03T03:43:11.009Z,500.00
2023-05-03T03:44:10.986Z,500.00
2023-05-03T03:45:10.977Z,500.00
2023-05-03T03:46:10.964Z,505.00
2023-05-03T03:47:10.970Z,500.00
2023-05-03T03:48:10.969Z,500.00
2023-05-03T03:49:10.919Z,504.00
2023-05-03T03:50:10.925Z,504.00
2023-05-03T03:51:10.902Z,503.00
2023-05-03T03:52:10.918Z,502.00
2023-05-03T03:53:11.027Z,500.00
2023-05-03T03:54:10.913Z,502.00
2023-05-03T03:55:10.886Z,505.00
2023-05-03T03:56:10.888Z,505.00
2023-05-03T03:57:10.908Z,507.00
2023-05-03T03:58:10.880Z,509.00
2023-05-03T03:59:10.883Z,505.00
2023-05-03T04:00:10.869Z,505.00
2023-05-03T04:01:10.895Z,505.00
2023-05-03T04:02:10.874Z,509.00
2023-05-03T04:03:11.003Z,506.00
2023-05-03T04:04:10.882Z,504.00
2023-05-03T04:05:10.846Z,507.00
2023-05-03T04:06:10.871Z,512.00
2023-05-03T04:07:10.837Z,507.00
2023-05-03T04:08:10.829Z,502.00
2023-05-03T04:09:10.818Z,500.00
2023-05-03T04:10:10.814Z,505.00
2023-05-03T04:11:10.793Z,502.00
2023-05-03T04:12:10.783Z,508.00
2023-05-03T04:13:10.832Z,504.00
2023-05-03T04:14:10.790Z,505.00
2023-05-03T04:15:10.781Z,506.00
2023-05-03T04:16:10.761Z,501.00
2023-05-03T04:17:10.963Z,503.00
2023-05-03T04:18:10.800Z,504.00
2023-05-03T04:19:10.751Z,507.00
2023-05-03T04:20:10.749Z,505.00
2023-05-03T04:21:10.798Z,503.00
2023-05-03T04:22:10.725Z,505.00
2023-05-03T04:23:10.727Z,503.00
2023-05-03T04:24:10.716Z,503.00
2023-05-03T04:25:10.734Z,505.00
2023-05-03T04:26:23.560Z,508.00
2023-05-03T04:27:11.676Z,509.00
2023-05-03T04:28:10.700Z,509.00
2023-05-03T04:29:10.684Z,505.00
2023-05-03T04:30:10.670Z,510.00
2023-05-03T04:31:10.670Z,510.00
2023-05-03T04:32:10.660Z,503.00
2023-05-03T04:33:10.680Z,500.00
2023-05-03T04:34:10.687Z,505.00
2023-05-03T04:35:10.693Z,508.00
2023-05-03T04:36:10.642Z,506.00
2023-05-03T04:37:10.650Z,501.00
2023-05-03T04:38:10.664Z,500.00
2023-05-03T04:39:10.717Z,509.00
2023-05-03T04:40:10.757Z,504.00
2023-05-03T04:41:10.783Z,503.00
2023-05-03T04:42:10.825Z,503.00
2023-05-03T04:43:10.872Z,505.00
2023-05-03T04:44:11.049Z,504.00
2023-05-03T04:45:10.968Z,507.00
2023-05-03T04:46:10.993Z,507.00
2023-05-03T04:47:11.024Z,504.00
2023-05-03T04:48:11.086Z,505.00
2023-05-03T04:49:11.111Z,505.00
2023-05-03T04:50:11.304Z,509.00
2023-05-03T04:51:11.190Z,505.00
2023-05-03T04:52:11.247Z,501.00
2023-05-03T04:53:23.782Z,510.00
2023-05-03T04:54:11.288Z,511.00
2023-05-03T04:55:11.283Z,512.00
2023-05-03T04:56:11.274Z,512.00
2023-05-03T04:57:11.284Z,514.00
2023-05-03T04:58:11.267Z,512.00
2023-05-03T04:59:11.307Z,507.00
2023-05-03T05:00:11.266Z,506.00
2023-05-03T05:01:11.254Z,511.00
2023-05-03T05:02:11.226Z,504.00
2023-05-03T05:03:11.288Z,500.00
2023-05-03T05:04:11.204Z,507.00
2023-05-03T05:05:11.328Z,504.00
2023-05-03T05:06:11.281Z,503.00
2023-05-03T05:07:11.166Z,501.00
2023-05-03T05:08:11.214Z,505.00
2023-05-03T05:09:11.160Z,508.00
2023-05-03T05:10:11.168Z,501.00
2023-05-03T05:11:11.143Z,500.00
2023-05-03T05:12:11.130Z,507.00
2023-05-03T05:13:11.233Z,507.00
2023-05-03T05:14:11.148Z,507.00
2023-05-03T05:15:11.133Z,506.00
2023-05-03T05:16:11.725Z,507.00
2023-05-03T05:17:11.137Z,508.00
2023-05-03T05:18:11.114Z,504.00
2023-05-03T05:19:11.102Z,506.00
2023-05-03T05:20:11.108Z,501.00
2023-05-03T05:21:11.083Z,502.00
2023-05-03T05:22:11.110Z,505.00
2023-05-03T05:23:11.080Z,504.00
2023-05-03T05:24:11.087Z,502.00
2023-05-03T05:25:11.084Z,506.00
2023-05-03T05:26:11.066Z,504.00
2023-05-03T05:27:11.086Z,507.00
2023-05-03T05:28:11.048Z,507.00
2023-05-03T05:29:11.093Z,504.00
2023-05-03T05:30:11.020Z,509.00
2023-05-03T05:31:11.103Z,504.00
2023-05-03T05:32:11.122Z,508.00
2023-05-03T05:33:11.204Z,509.00
2023-05-03T05:34:11.164Z,506.00
2023-05-03T05:35:11.187Z,501.00
2023-05-03T05:36:11.218Z,504.00
2023-05-03T05:37:11.288Z,508.00
2023-05-03T05:38:11.320Z,507.00
2023-05-03T05:39:11.359Z,505.00
2023-05-03T05:40:11.402Z,506.00
2023-05-03T05:41:11.450Z,502.00
2023-05-03T05:42:11.497Z,507.00
2023-05-03T05:43:11.769Z,506.00
2023-05-03T05:44:11.574Z,505.00
2023-05-03T05:45:11.667Z,506.00
2023-05-03T05:46:11.661Z,509.00
2023-05-03T05:47:11.765Z,505.00
2023-05-03T05:48:11.811Z,506.00
2023-05-03T05:49:11.812Z,503.00
2023-05-03T05:50:17.382Z,503.00
2023-05-03T05:51:12.822Z,504.00
2023-05-03T05:52:11.864Z,505.00
2023-05-03T05:53:12.250Z,505.00
2023-05-03T05:54:11.828Z,505.00
2023-05-03T05:55:11.804Z,506.00
2023-05-03T05:56:11.816Z,505.00
2023-05-03T05:57:11.773Z,509.00
2023-05-03T05:58:11.814Z,504.00
2023-05-03T05:59:11.789Z,509.00
2023-05-03T06:00:11.746Z,507.00
2023-05-03T06:01:11.772Z,506.00
2023-05-03T06:02:11.848Z,508.00
2023-05-03T06:03:12.253Z,508.00
2023-05-03T06:04:11.925Z,514.00
2023-05-03T06:05:11.987Z,503.00
2023-05-03T06:06:12.043Z,507.00
2023-05-03T06:07:12.009Z,510.00
2023-05-03T06:08:12.032Z,507.00
2023-05-03T06:09:23.607Z,507.00
2023-05-03T06:10:13.117Z,507.00
2023-05-03T06:11:12.076Z,508.00
2023-05-03T06:12:12.054Z,508.00
2023-05-03T06:13:12.055Z,510.00
2023-05-03T06:14:12.042Z,507.00
2023-05-03T06:15:12.058Z,513.00
2023-05-03T06:16:12.075Z,514.00
2023-05-03T06:17:12.161Z,509.00
2023-05-03T06:18:12.107Z,507.00
2023-05-03T06:19:12.033Z,514.00
2023-05-03T06:20:12.102Z,509.00
2023-05-03T06:21:12.044Z,510.00
2023-05-03T06:22:12.089Z,510.00
2023-05-03T06:23:12.113Z,509.00
2023-05-03T06:24:12.139Z,506.00
2023-05-03T06:25:12.194Z,513.00
2023-05-03T06:26:12.242Z,512.00
2023-05-03T06:27:12.318Z,507.00
2023-05-03T06:28:12.345Z,511.00
2023-05-03T06:29:12.359Z,509.00
2023-05-03T06:30:12.434Z,509.00
2023-05-03T06:31:12.487Z,509.00
2023-05-03T06:32:12.481Z,515.00
2023-05-03T06:33:12.608Z,509.00
2023-05-03T06:34:12.604Z,512.00
2023-05-03T06:35:12.677Z,509.00
2023-05-03T06:36:12.678Z,509.00
2023-05-03T06:37:12.732Z,509.00
2023-05-03T06:38:12.831Z,514.00
2023-05-03T06:39:12.857Z,507.00
2023-05-03T06:40:12.918Z,511.00
2023-05-03T06:41:12.918Z,507.00
2023-05-03T06:42:12.969Z,512.00
2023-05-03T06:43:13.289Z,506.00
2023-05-03T06:44:13.057Z,509.00
2023-05-03T06:45:13.085Z,509.00
2023-05-03T06:46:13.184Z,509.00
2023-05-03T06:47:13.209Z,505.00
2023-05-03T06:48:13.316Z,513.00
2023-05-03T06:49:13.271Z,506.00
2023-05-03T06:50:13.334Z,504.00
2023-05-03T06:51:13.410Z,511.00
2023-05-03T06:52:13.589Z,509.00
2023-05-03T06:53:13.466Z,507.00
2023-05-03T06:54:13.475Z,509.00
2023-05-03T06:55:13.482Z,506.00
2023-05-03T06:56:13.514Z,508.00
2023-05-03T06:57:13.550Z,507.00
2023-05-03T06:58:13.657Z,511.00
2023-05-03T06:59:13.648Z,504.00
2023-05-03T07:00:13.693Z,504.00
2023-05-03T07:01:13.751Z,504.00
2023-05-03T07:02:13.840Z,512.00
2023-05-03T07:03:13.941Z,510.00
2023-05-03T07:04:14.044Z,508.00
2023-05-03T07:05:13.887Z,508.00
2023-05-03T07:06:14.009Z,511.00
2023-05-03T07:07:13.999Z,508.00
2023-05-03T07:08:14.062Z,507.00
2023-05-03T07:09:14.036Z,512.00
2023-05-03T07:10:14.119Z,504.00
2023-05-03T07:11:14.098Z,499.00
2023-05-03T07:12:14.198Z,500.00
2023-05-03T07:13:14.189Z,503.00
2023-05-03T07:14:14.213Z,500.00
2023-05-03T07:15:14.281Z,505.00
2023-05-03T07:16:14.412Z,504.00
2023-05-03T07:17:14.435Z,505.00
2023-05-03T07:18:14.505Z,500.00
2023-05-03T07:19:14.562Z,500.00
2023-05-03T07:20:14.616Z,503.00
2023-05-03T07:21:14.666Z,504.00
2023-05-03T07:22:14.756Z,500.00
2023-05-03T07:23:14.726Z,501.00
2023-05-03T07:24:14.869Z,501.00
2023-05-03T07:25:15.066Z,510.00
2023-05-03T07:26:14.894Z,502.00
2023-05-03T07:27:14.912Z,500.00
2023-05-03T07:28:14.976Z,500.00
2023-05-03T07:29:14.952Z,502.00
2023-05-03T07:30:14.982Z,505.00
2023-05-03T07:31:14.936Z,500.00
2023-05-03T07:32:14.993Z,503.00
2023-05-03T07:33:15.185Z,514.00
2023-05-03T07:34:15.004Z,507.00
2023-05-03T07:35:14.948Z,500.00
2023-05-03T07:36:15.016Z,509.00
2023-05-03T07:37:14.963Z,502.00
2023-05-03T07:38:15.050Z,498.00
2023-05-03T07:39:15.001Z,500.00
2023-05-03T07:40:14.997Z,502.00
2023-05-03T07:41:15.007Z,502.00
2023-05-03T07:42:15.087Z,503.00
2023-05-03T07:43:15.062Z,504.00
2023-05-03T07:44:15.054Z,500.00
2023-05-03T07:45:15.050Z,532.00
2023-05-03T07:46:15.124Z,541.00
2023-05-03T07:47:15.062Z,558.00
2023-05-03T07:48:15.296Z,588.00
2023-05-03T07:49:15.101Z,591.00
2023-05-03T07:50:15.151Z,602.00
2023-05-03T07:51:15.191Z,607.00
2023-05-03T07:52:22.725Z,625.00
2023-05-03T07:53:15.377Z,626.00
2023-05-03T07:54:15.211Z,628.00
2023-05-03T07:55:15.198Z,631.00
2023-05-03T07:56:15.184Z,643.00
2023-05-03T07:57:15.169Z,654.00
2023-05-03T07:58:15.209Z,660.00
2023-05-03T07:59:15.162Z,676.00
2023-05-03T08:00:15.158Z,677.00
2023-05-03T08:01:15.132Z,690.00
2023-05-03T08:02:15.213Z,714.00
2023-05-03T08:03:15.267Z,731.00
2023-05-03T08:04:15.305Z,747.00
2023-05-03T08:05:15.288Z,771.00
2023-05-03T08:06:15.178Z,772.00
2023-05-03T08:07:15.118Z,767.00
2023-05-03T08:08:15.113Z,792.00
2023-05-03T08:09:15.076Z,812.00
2023-05-03T08:10:15.090Z,842.00
2023-05-03T08:11:15.087Z,849.00
2023-05-03T08:12:15.089Z,884.00
2023-05-03T08:13:15.077Z,906.00
2023-05-03T08:14:15.125Z,957.00
2023-05-03T08:15:15.095Z,988.00
2023-05-03T08:16:15.119Z,979.00
2023-05-03T08:17:15.053Z,992.00
2023-05-03T08:18:15.087Z,1016.00
2023-05-03T08:19:15.033Z,1031.00
2023-05-03T08:20:15.107Z,1065.00
2023-05-03T08:21:15.026Z,1088.00
2023-05-03T08:22:14.989Z,1095.00
2023-05-03T08:23:15.826Z,1119.00
2023-05-03T08:24:16.160Z,1129.00
2023-05-03T08:25:15.066Z,1152.00
2023-05-03T08:26:15.119Z,1192.00
2023-05-03T08:27:15.166Z,1182.00
2023-05-03T08:28:15.234Z,1181.00
2023-05-03T08:29:15.301Z,1206.00
2023-05-03T08:30:15.384Z,1239.00
2023-05-03T08:31:15.459Z,1232.00
2023-05-03T08:32:15.425Z,1240.00
2023-05-03T08:33:15.469Z,1250.00
2023-05-03T08:34:15.512Z,1269.00
2023-05-03T08:35:15.543Z,1277.00
2023-05-03T08:36:15.552Z,1278.00
2023-05-03T08:37:15.559Z,1207.00
2023-05-03T08:38:15.550Z,1150.00
2023-05-03T08:39:15.807Z,1204.00
2023-05-03T08:40:15.562Z,1204.00
2023-05-03T08:41:15.601Z,1178.00
2023-05-03T08:42:15.635Z,1142.00
2023-05-03T08:43:15.645Z,1107.00
2023-05-03T08:44:15.821Z,1100.00
2023-05-03T08:45:15.706Z,1122.00
2023-05-03T08:46:15.757Z,1131.00
2023-05-03T08:47:15.688Z,1138.00
2023-05-03T08:48:15.756Z,1144.00
2023-05-03T08:49:15.724Z,1139.00
2023-05-03T08:50:15.793Z,1143.00
2023-05-03T08:51:15.726Z,1129.00
2023-05-03T08:52:15.749Z,1106.00
2023-05-03T08:53:15.760Z,1092.00
2023-05-03T08:54:15.782Z,1074.00
2023-05-03T08:55:15.727Z,1064.00
2023-05-03T08:56:15.753Z,1057.00
2023-05-03T08:57:15.731Z,1036.00
2023-05-03T08:58:15.722Z,1023.00
2023-05-03T08:59:15.792Z,1019.00
2023-05-03T09:00:15.739Z,1019.00
2023-05-03T09:01:15.729Z,1014.00
2023-05-03T09:02:15.802Z,1004.00
2023-05-03T09:03:15.856Z,999.00
2023-05-03T09:04:15.853Z,988.00
2023-05-03T09:05:15.783Z,989.00
2023-05-03T09:06:15.779Z,1002.00
2023-05-03T09:07:15.761Z,991.00
2023-05-03T09:08:15.764Z,986.00
2023-05-03T09:09:15.796Z,989.00
2023-05-03T09:10:15.778Z,997.00
2023-05-03T09:11:15.802Z,977.00
2023-05-03T09:12:15.796Z,990.00
2023-05-03T09:13:15.807Z,984.00
2023-05-03T09:14:15.843Z,987.00
2023-05-03T09:15:15.863Z,982.00
2023-05-03T09:16:15.900Z,971.00
2023-05-03T09:17:15.850Z,978.00
2023-05-03T09:18:16.006Z,984.00
2023-05-03T09:19:15.945Z,970.00
2023-05-03T09:20:15.898Z,979.00
2023-05-03T09:21:15.914Z,974.00
2023-05-03T09:22:15.938Z,972.00
2023-05-03T09:23:15.962Z,977.00
2023-05-03T09:24:15.980Z,979.00
2023-05-03T09:25:15.987Z,970.00
2023-05-03T09:26:15.985Z,966.00
2023-05-03T09:27:15.992Z,962.00
2023-05-03T09:28:16.035Z,972.00
2023-05-03T09:29:16.057Z,970.00
2023-05-03T09:30:16.250Z,952.00
2023-05-03T09:31:16.092Z,967.00
2023-05-03T09:32:16.167Z,960.00
2023-05-03T09:33:16.158Z,956.00
2023-05-03T09:34:16.141Z,954.00
2023-05-03T09:35:16.212Z,972.00
2023-05-03T09:36:16.220Z,979.00
2023-05-03T09:37:16.231Z,988.00
2023-05-03T09:38:16.236Z,994.00
2023-05-03T09:39:16.336Z,1005.00
2023-05-03T09:40:16.237Z,1017.00
2023-05-03T09:41:16.269Z,1010.00
2023-05-03T09:42:16.292Z,1006.00
2023-05-03T09:43:18.770Z,1013.00
2023-05-03T09:44:16.318Z,1022.00
2023-05-03T09:45:16.257Z,1006.00
2023-05-03T09:46:16.309Z,1010.00
2023-05-03T09:47:16.277Z,1017.00
2023-05-03T09:48:16.586Z,1014.00
2023-05-03T09:49:18.093Z,1020.00
2023-05-03T09:50:16.243Z,1030.00
2023-05-03T09:51:16.245Z,1014.00
2023-05-03T09:52:16.230Z,1019.00
2023-05-03T09:53:16.223Z,1022.00
2023-05-03T09:54:16.202Z,1023.00
2023-05-03T09:55:16.230Z,1015.00
2023-05-03T09:56:16.218Z,1022.00
2023-05-03T09:57:16.216Z,1013.00
2023-05-03T09:58:16.188Z,1023.00
2023-05-03T09:59:16.164Z,1022.00
2023-05-03T10:00:16.198Z,1016.00
2023-05-03T10:01:16.329Z,1025.00
2023-05-03T10:02:16.163Z,1009.00
2023-05-03T10:03:16.175Z,1006.00
2023-05-03T10:04:16.229Z,1003.00
2023-05-03T10:05:16.161Z,1005.00
2023-05-03T10:06:16.195Z,1020.00
2023-05-03T10:07:16.127Z,1014.00
2023-05-03T10:08:16.139Z,1007.00
2023-05-03T10:09:16.106Z,1014.00
2023-05-03T10:10:16.122Z,1003.00
2023-05-03T10:11:16.084Z,1021.00
2023-05-03T10:12:16.107Z,1019.00
2023-05-03T10:13:16.052Z,1013.00
2023-05-03T10:14:16.072Z,1017.00
2023-05-03T10:15:16.058Z,1020.00
2023-05-03T10:16:16.094Z,1019.00
2023-05-03T10:17:16.084Z,1019.00
2023-05-03T10:18:16.105Z,1012.00
2023-05-03T10:19:16.069Z,1014.00
2023-05-03T10:20:16.092Z,1017.00
2023-05-03T10:21:16.065Z,1013.00
2023-05-03T10:22:16.089Z,1023.00
2023-05-03T10:23:16.116Z,1013.00
2023-05-03T10:24:16.393Z,910.00
2023-05-03T10:25:16.372Z,828.00
2023-05-03T10:26:16.209Z,831.00
2023-05-03T10:27:16.229Z,883.00
2023-05-03T10:28:16.270Z,853.00
2023-05-03T10:29:16.327Z,760.00
2023-05-03T10:30:16.363Z,776.00
2023-05-03T10:31:16.452Z,700.00
2023-05-03T10:32:16.437Z,660.00
2023-05-03T10:33:16.546Z,630.00
2023-05-03T10:34:16.836Z,627.00
2023-05-03T10:35:16.610Z,599.00
2023-05-03T10:36:16.662Z,616.00
2023-05-03T10:37:16.726Z,607.00
2023-05-03T10:38:16.759Z,612.00
2023-05-03T10:39:16.860Z,598.00
2023-05-03T10:40:16.909Z,598.00
2023-05-03T10:41:16.984Z,574.00
2023-05-03T10:42:17.009Z,564.00
2023-05-03T10:43:17.049Z,551.00
2023-05-03T10:44:17.370Z,526.00
2023-05-03T10:45:17.181Z,516.00
2023-05-03T10:46:17.301Z,516.00
2023-05-03T10:47:17.321Z,518.00
2023-05-03T10:48:17.358Z,521.00
2023-05-03T10:49:17.439Z,525.00
2023-05-03T10:50:17.533Z,519.00
2023-05-03T10:51:17.543Z,519.00
2023-05-03T10:52:17.680Z,523.00
2023-05-03T10:53:17.675Z,506.00
2023-05-03T10:54:17.769Z,507.00
2023-05-03T10:55:17.831Z,500.00
2023-05-03T10:56:17.885Z,500.00
2023-05-03T10:57:17.904Z,500.00
2023-05-03T10:58:17.964Z,500.00
2023-05-03T10:59:17.983Z,500.00
2023-05-03T11:00:18.059Z,519.00
2023-05-03T11:01:18.091Z,526.00
2023-05-03T11:02:18.187Z,536.00
2023-05-03T11:03:18.220Z,555.00
2023-05-03T11:04:18.299Z,566.00
2023-05-03T11:05:18.382Z,580.00
2023-05-03T11:06:18.469Z,576.00
2023-05-03T11:07:18.512Z,574.00
2023-05-03T11:08:18.562Z,580.00
2023-05-03T11:09:18.619Z,576.00
2023-05-03T11:10:18.665Z,567.00
2023-05-03T11:11:18.719Z,564.00
2023-05-03T11:12:18.813Z,569.00
2023-05-03T11:13:18.901Z,564.00
2023-05-03T11:14:18.963Z,536.00
2023-05-03T11:15:18.965Z,529.00
2023-05-03T11:16:19.113Z,536.00
2023-05-03T11:17:19.112Z,523.00
2023-05-03T11:18:19.201Z,517.00
2023-05-03T11:19:19.250Z,507.00
2023-05-03T11:20:19.278Z,516.00
2023-05-03T11:21:19.343Z,501.00
2023-05-03T11:22:19.416Z,498.00
2023-05-03T11:23:19.505Z,512.00
2023-05-03T11:24:19.568Z,535.00
2023-05-03T11:25:19.620Z,512.00
2023-05-03T11:26:19.681Z,523.00
2023-05-03T11:27:19.688Z,539.00
2023-05-03T11:28:19.768Z,496.00
2023-05-03T11:29:19.858Z,500.00
2023-05-03T11:30:19.825Z,531.00
2023-05-03T11:31:19.865Z,500.00
2023-05-03T11:32:20.031Z,507.00
2023-05-03T11:33:19.943Z,504.00
2023-05-03T11:34:19.974Z,513.00
2023-05-03T11:35:20.051Z,502.00
2023-05-03T11:36:20.041Z,524.00
2023-05-03T11:37:20.101Z,567.00
2023-05-03T11:38:20.110Z,619.00
2023-05-03T11:39:20.935Z,647.00
2023-05-03T11:40:20.183Z,599.00
2023-05-03T11:41:20.228Z,558.00
2023-05-03T11:42:20.306Z,508.00
2023-05-03T11:43:20.286Z,520.00
2023-05-03T11:44:20.372Z,500.00
2023-05-03T11:45:22.804Z,516.00
2023-05-03T11:46:20.438Z,556.00
2023-05-03T11:47:20.342Z,567.00
2023-05-03T11:48:20.589Z,550.00
2023-05-03T11:49:20.586Z,499.00
2023-05-03T11:50:20.373Z,500.00
2023-05-03T11:51:20.356Z,519.00
2023-05-03T11:52:20.341Z,497.00
2023-05-03T11:53:20.358Z,539.00
2023-05-03T11:54:26.102Z,598.00
2023-05-03T11:55:21.323Z,599.00
2023-05-03T11:56:20.438Z,600.00
2023-05-03T11:57:20.330Z,605.00
2023-05-03T11:58:20.289Z,610.00
2023-05-03T11:59:20.279Z,626.00
2023-05-03T12:00:20.288Z,618.00
2023-05-03T12:01:20.293Z,621.00
2023-05-03T12:02:20.372Z,635.00
2023-05-03T12:03:20.595Z,647.00
2023-05-03T12:04:20.730Z,657.00
2023-05-03T12:05:20.938Z,691.00
2023-05-03T12:06:20.809Z,759.00
2023-05-03T12:07:22.685Z,794.00
2023-05-03T12:08:21.316Z,853.00
2023-05-03T12:09:22.272Z,884.00
2023-05-03T12:10:23.925Z,904.00
2023-05-03T12:11:22.583Z,906.00
2023-05-03T12:12:25.687Z,907.00
2023-05-03T12:13:22.003Z,909.00
2023-05-03T12:14:20.650Z,925.00
2023-05-03T12:15:21.608Z,959.00
2023-05-03T12:16:20.637Z,1008.00
2023-05-03T12:17:20.687Z,1087.00
2023-05-03T12:18:20.720Z,1129.00
2023-05-03T12:19:23.109Z,1153.00
2023-05-03T12:22:25.639Z,1195.00
2023-05-03T12:23:21.802Z,1196.00
2023-05-03T12:24:20.949Z,1206.00
2023-05-03T12:25:21.143Z,1226.00
2023-05-03T12:26:20.582Z,1272.00
2023-05-03T12:27:22.141Z,1329.00
2023-05-03T12:28:21.380Z,1377.00